createdAt,value
2023-06-17T13:38:39.879Z,21.37
2023-06-17T13:41:05.905Z,21.50
2023-06-17T13:43:32.077Z,21.36
2023-06-17T13:45:58.956Z,21.50
2023-06-17T13:48:26.806Z,21.33
2023-06-17T13:51:06.448Z,21.49
2023-06-17T13:58:20.859Z,21.36
2023-06-17T14:00:46.821Z,21.17
2023-06-17T14:03:15.739Z,21.42
2023-06-17T14:05:43.157Z,21.47
2023-06-17T14:08:09.589Z,21.38
2023-06-17T14:10:35.957Z,21.44
2023-06-17T14:15:42.242Z,21.44
2023-06-17T14:18:09.128Z,21.41
2023-06-17T14:20:35.317Z,21.42
2023-06-17T14:27:30.029Z,21.39
2023-06-17T14:31:29.209Z,21.32
2023-06-17T14:33:56.464Z,21.34
2023-06-17T14:39:03.871Z,21.29
2023-06-17T14:41:31.964Z,21.23
2023-06-17T14:43:59.468Z,21.24
2023-06-17T14:46:25.501Z,21.26
2023-06-17T14:48:52.583Z,21.28
2023-06-17T14:51:18.696Z,21.35
2023-06-17T14:53:45.992Z,21.35
2023-06-17T14:56:45.743Z,21.35
2023-06-17T15:01:00.978Z,21.21
2023-06-17T15:03:26.989Z,21.30
2023-06-17T15:05:53.241Z,21.33
2023-06-17T15:08:19.173Z,21.36
2023-06-17T15:10:45.090Z,21.28
2023-06-17T15:13:11.013Z,21.30
2023-06-17T15:15:37.900Z,21.36
2023-06-17T15:18:03.984Z,21.32
2023-06-17T15:20:30.079Z,21.34
2023-06-17T15:22:56.392Z,21.28
2023-06-17T15:25:22.453Z,21.39
2023-06-17T15:27:48.468Z,21.37
2023-06-17T15:30:14.486Z,21.38
2023-06-17T15:34:46.563Z,21.38
2023-06-17T15:37:12.411Z,21.35
2023-06-17T15:39:38.365Z,21.36
2023-06-17T15:42:04.791Z,21.21
2023-06-17T15:44:30.908Z,21.35
2023-06-17T15:46:56.838Z,21.36
2023-06-17T15:49:22.795Z,21.32
2023-06-17T15:51:48.779Z,21.23
2023-06-17T15:54:14.824Z,21.36
2023-06-17T15:59:19.089Z,21.37
2023-06-17T16:07:06.634Z,21.41
2023-06-17T16:14:56.282Z,21.35
2023-06-17T16:17:22.239Z,21.21
2023-06-17T16:19:48.230Z,21.42
2023-06-17T16:22:14.371Z,21.42
2023-06-17T16:24:42.184Z,21.43
2023-06-17T16:32:25.556Z,21.19
2023-06-17T16:34:51.634Z,21.36
2023-06-17T16:39:14.863Z,21.41
2023-06-17T16:41:41.169Z,21.38
2023-06-17T16:44:08.745Z,21.42
2023-06-17T16:46:35.249Z,21.42
2023-06-17T16:49:01.420Z,21.41
2023-06-17T16:54:06.584Z,21.37
2023-06-17T16:56:33.098Z,21.41
2023-06-17T16:58:59.230Z,21.19
2023-06-17T17:06:42.841Z,21.21
2023-06-17T17:09:09.128Z,21.33
2023-06-17T17:11:35.977Z,21.38
2023-06-17T17:18:18.133Z,21.26
2023-06-17T17:27:05.588Z,21.26
2023-06-17T17:32:10.774Z,21.26
2023-06-17T17:34:36.907Z,21.39
2023-06-17T17:37:03.900Z,21.36
2023-06-17T17:39:29.861Z,21.23
2023-06-17T17:41:55.696Z,21.32
2023-06-17T17:44:21.633Z,21.41
2023-06-17T17:49:25.850Z,21.42
2023-06-17T17:54:32.796Z,21.37
2023-06-17T17:56:58.904Z,21.31
2023-06-17T17:59:24.965Z,21.29
2023-06-17T18:01:51.191Z,21.45
2023-06-17T18:04:17.016Z,21.42
2023-06-17T18:06:43.226Z,21.44
2023-06-17T18:09:09.148Z,21.41
2023-06-17T18:11:35.083Z,21.41
2023-06-17T18:14:01.892Z,21.46
2023-06-17T18:19:07.395Z,21.37
2023-06-17T18:21:33.728Z,21.45
2023-06-17T18:29:19.736Z,21.31
2023-06-17T18:35:59.215Z,21.49
2023-06-17T18:38:25.615Z,21.24
2023-06-17T18:40:51.874Z,21.43
2023-06-17T18:45:57.005Z,21.30
2023-06-17T18:48:24.125Z,21.25
2023-06-17T18:50:51.396Z,21.43
2023-06-17T18:57:17.061Z,21.16
2023-06-17T18:59:42.907Z,21.41
2023-06-17T19:08:28.536Z,21.37
2023-06-17T19:10:54.434Z,21.32
2023-06-17T19:13:20.400Z,21.36
2023-06-17T19:15:46.726Z,21.24
2023-06-17T19:18:12.818Z,21.32
2023-06-17T19:20:39.452Z,21.23
2023-06-17T19:23:08.375Z,21.31
2023-06-17T19:25:34.564Z,21.30
2023-06-17T19:28:01.162Z,21.20
2023-06-17T19:30:27.316Z,21.29
2023-06-17T19:32:53.382Z,21.22
2023-06-17T19:35:19.295Z,21.24
2023-06-17T19:37:47.573Z,21.15
2023-06-17T19:40:14.222Z,21.10
2023-06-17T19:42:40.173Z,21.17
2023-06-17T19:47:43.063Z,21.16
2023-06-17T19:52:45.424Z,21.20
2023-06-17T19:58:37.938Z,21.19
2023-06-17T20:10:05.531Z,21.14
2023-06-17T20:12:31.754Z,21.16
2023-06-17T20:15:09.439Z,21.10
2023-06-17T20:17:35.558Z,21.05
2023-06-17T20:22:39.249Z,21.05
2023-06-17T20:25:05.708Z,21.09
2023-06-17T20:27:33.266Z,20.96
2023-06-17T20:34:44.679Z,20.94
2023-06-17T20:37:11.193Z,21.08
2023-06-17T20:42:15.153Z,21.06
2023-06-17T20:44:44.928Z,21.06
2023-06-17T20:47:11.324Z,21.05
2023-06-17T20:49:37.546Z,21.03
2023-06-17T20:52:05.039Z,20.98
2023-06-17T20:54:31.852Z,21.03
2023-06-17T20:56:58.012Z,20.99
2023-06-17T20:59:25.717Z,20.88
2023-06-17T21:01:52.439Z,21.01
2023-06-17T21:04:18.684Z,21.00
2023-06-17T21:06:44.682Z,20.99
2023-06-17T21:09:13.205Z,20.97
2023-06-17T21:14:17.230Z,20.96
2023-06-17T21:16:43.637Z,20.98
2023-06-17T21:21:47.622Z,20.86
2023-06-17T21:24:13.581Z,20.85
2023-06-17T21:26:39.546Z,20.94
2023-06-17T21:29:06.291Z,20.93
2023-06-17T21:31:34.413Z,20.91
2023-06-17T21:36:40.213Z,20.84
2023-06-17T21:39:06.991Z,20.81
2023-06-17T21:44:16.801Z,20.90
2023-06-17T21:46:43.009Z,20.84
2023-06-17T21:49:08.961Z,20.89
2023-06-17T21:51:36.070Z,20.84
2023-06-17T21:54:03.081Z,20.88
2023-06-17T21:56:29.393Z,20.83
2023-06-17T21:58:55.630Z,20.86
2023-06-17T22:01:21.645Z,20.76
2023-06-17T22:06:25.482Z,20.66
2023-06-17T22:18:47.357Z,20.82
2023-06-17T22:21:13.252Z,20.69
2023-06-17T22:23:39.557Z,20.75
2023-06-17T22:26:05.496Z,20.78
2023-06-17T22:31:10.857Z,20.31
2023-06-17T22:33:36.723Z,20.71
2023-06-17T22:36:03.585Z,20.76
2023-06-17T22:40:12.910Z,20.73
2023-06-17T22:42:39.783Z,20.72
2023-06-17T22:47:16.981Z,20.72
2023-06-17T22:49:43.536Z,20.68
2023-06-17T22:54:48.394Z,20.71
2023-06-17T22:59:53.746Z,20.70
2023-06-17T23:04:57.686Z,20.69
2023-06-17T23:10:02.992Z,20.65
2023-06-17T23:15:07.899Z,20.61
2023-06-17T23:17:34.124Z,20.64
2023-06-17T23:20:01.249Z,20.64
2023-06-17T23:22:29.632Z,20.63
2023-06-17T23:27:37.451Z,20.10
2023-06-17T23:30:03.780Z,20.56
2023-06-17T23:32:30.022Z,20.55
2023-06-17T23:34:57.151Z,20.41
2023-06-17T23:37:24.900Z,20.60
2023-06-17T23:42:31.020Z,20.54
2023-06-17T23:44:56.891Z,20.57
2023-06-17T23:47:23.192Z,20.56
2023-06-17T23:54:27.472Z,20.56
2023-06-17T23:56:53.393Z,20.53
2023-06-17T23:59:19.321Z,20.40
